sensor_id;sensor_type;location;lat;lon;timestamp;P1;durP1;ratioP1;P2;durP2;ratioP2
32297;SDS011;18782;48.984;8.548;2023-12-29T00:00:22;2.92;;;1.60;;
32297;SDS011;18782;48.984;8.548;2023-12-29T00:02:50;3.25;;;1.52;;
32297;SDS011;18782;48.984;8.548;2023-12-29T00:05:17;2.00;;;1.40;;
32297;SDS011;18782;48.984;8.548;2023-12-29T00:07:45;1.83;;;1.50;;
32297;SDS011;18782;48.984;8.548;2023-12-29T00:10:13;3.38;;;1.73;;
32297;SDS011;18782;48.984;8.548;2023-12-29T00:12:41;2.33;;;1.67;;
32297;SDS011;18782;48.984;8.548;2023-12-29T00:15:10;3.20;;;2.10;;
32297;SDS011;18782;48.984;8.548;2023-12-29T00:17:38;2.90;;;1.85;;
32297;SDS011;18782;48.984;8.548;2023-12-29T00:20:07;2.85;;;1.60;;
32297;SDS011;18782;48.984;8.548;2023-12-29T00:22:37;2.50;;;1.67;;
32297;SDS011;18782;48.984;8.548;2023-12-29T00:25:05;4.50;;;1.85;;
32297;SDS011;18782;48.984;8.548;2023-12-29T00:27:35;2.30;;;1.63;;
32297;SDS011;18782;48.984;8.548;2023-12-29T00:30:03;3.70;;;2.00;;
32297;SDS011;18782;48.984;8.548;2023-12-29T00:32:33;2.45;;;1.75;;
32297;SDS011;18782;48.984;8.548;2023-12-29T00:35:02;3.78;;;2.10;;
32297;SDS011;18782;48.984;8.548;2023-12-29T00:37:30;4.78;;;2.40;;
32297;SDS011;18782;48.984;8.548;2023-12-29T00:39:57;4.13;;;2.10;;
32297;SDS011;18782;48.984;8.548;2023-12-29T00:42:26;3.10;;;2.00;;
32297;SDS011;18782;48.984;8.548;2023-12-29T00:44:53;3.58;;;2.47;;
32297;SDS011;18782;48.984;8.548;2023-12-29T00:47:21;3.33;;;2.13;;
32297;SDS011;18782;48.984;8.548;2023-12-29T00:49:51;4.60;;;2.35;;
32297;SDS011;18782;48.984;8.548;2023-12-29T00:52:19;4.30;;;2.42;;
32297;SDS011;18782;48.984;8.548;2023-12-29T00:54:46;2.70;;;1.90;;
32297;SDS011;18782;48.984;8.548;2023-12-29T00:57:14;3.35;;;2.20;;
32297;SDS011;18782;48.984;8.548;2023-12-29T00:59:42;3.05;;;2.17;;
32297;SDS011;18782;48.984;8.548;2023-12-29T01:02:11;2.95;;;2.00;;
32297;SDS011;18782;48.984;8.548;2023-12-29T01:04:39;4.75;;;2.30;;
32297;SDS011;18782;48.984;8.548;2023-12-29T01:07:08;3.17;;;2.10;;
32297;SDS011;18782;48.984;8.548;2023-12-29T01:09:37;4.72;;;2.42;;
32297;SDS011;18782;48.984;8.548;2023-12-29T01:12:06;2.67;;;1.77;;
32297;SDS011;18782;48.984;8.548;2023-12-29T01:14:34;2.38;;;1.80;;
32297;SDS011;18782;48.984;8.548;2023-12-29T01:17:02;4.15;;;2.20;;
32297;SDS011;18782;48.984;8.548;2023-12-29T01:19:31;4.03;;;2.45;;
32297;SDS011;18782;48.984;8.548;2023-12-29T01:21:59;2.70;;;2.10;;
32297;SDS011;18782;48.984;8.548;2023-12-29T01:24:28;3.65;;;2.20;;
32297;SDS011;18782;48.984;8.548;2023-12-29T01:27:08;2.95;;;1.98;;
32297;SDS011;18782;48.984;8.548;2023-12-29T01:29:35;2.63;;;2.17;;
32297;SDS011;18782;48.984;8.548;2023-12-29T01:32:06;3.00;;;2.05;;
32297;SDS011;18782;48.984;8.548;2023-12-29T01:34:34;2.65;;;1.92;;
32297;SDS011;18782;48.984;8.548;2023-12-29T01:37:02;4.22;;;2.00;;
32297;SDS011;18782;48.984;8.548;2023-12-29T01:39:32;3.72;;;1.90;;
32297;SDS011;18782;48.984;8.548;2023-12-29T01:42:00;5.03;;;2.17;;
32297;SDS011;18782;48.984;8.548;2023-12-29T01:44:28;3.40;;;2.10;;
32297;SDS011;18782;48.984;8.548;2023-12-29T01:46:57;3.40;;;2.35;;
32297;SDS011;18782;48.984;8.548;2023-12-29T01:49:26;5.20;;;2.65;;
32297;SDS011;18782;48.984;8.548;2023-12-29T01:51:56;3.83;;;2.22;;
32297;SDS011;18782;48.984;8.548;2023-12-29T01:54:25;3.78;;;2.13;;
32297;SDS011;18782;48.984;8.548;2023-12-29T01:56:59;2.58;;;2.05;;
32297;SDS011;18782;48.984;8.548;2023-12-29T01:59:28;3.92;;;2.60;;
32297;SDS011;18782;48.984;8.548;2023-12-29T02:01:57;4.95;;;2.33;;
32297;SDS011;18782;48.984;8.548;2023-12-29T02:04:25;4.30;;;2.22;;
32297;SDS011;18782;48.984;8.548;2023-12-29T02:06:54;3.22;;;2.00;;
32297;SDS011;18782;48.984;8.548;2023-12-29T02:09:24;3.03;;;1.77;;
32297;SDS011;18782;48.984;8.548;2023-12-29T02:11:52;3.60;;;2.20;;
32297;SDS011;18782;48.984;8.548;2023-12-29T02:14:22;2.55;;;2.00;;
32297;SDS011;18782;48.984;8.548;2023-12-29T02:16:52;2.67;;;2.00;;
32297;SDS011;18782;48.984;8.548;2023-12-29T02:19:37;3.65;;;1.92;;
32297;SDS011;18782;48.984;8.548;2023-12-29T02:22:07;2.75;;;2.15;;
32297;SDS011;18782;48.984;8.548;2023-12-29T02:24:36;2.08;;;1.40;;
32297;SDS011;18782;48.984;8.548;2023-12-29T02:27:16;2.60;;;1.60;;
32297;SDS011;18782;48.984;8.548;2023-12-29T02:29:48;2.78;;;1.80;;
32297;SDS011;18782;48.984;8.548;2023-12-29T02:32:30;2.20;;;1.60;;
32297;SDS011;18782;48.984;8.548;2023-12-29T02:35:00;2.15;;;1.77;;
32297;SDS011;18782;48.984;8.548;2023-12-29T02:37:30;3.45;;;1.85;;
32297;SDS011;18782;48.984;8.548;2023-12-29T02:39:59;2.22;;;1.58;;
32297;SDS011;18782;48.984;8.548;2023-12-29T02:42:28;3.20;;;1.83;;
32297;SDS011;18782;48.984;8.548;2023-12-29T02:44:56;2.88;;;1.70;;
32297;SDS011;18782;48.984;8.548;2023-12-29T02:47:24;4.10;;;1.50;;
32297;SDS011;18782;48.984;8.548;2023-12-29T02:49:53;2.60;;;1.45;;
32297;SDS011;18782;48.984;8.548;2023-12-29T02:52:21;2.83;;;1.58;;
32297;SDS011;18782;48.984;8.548;2023-12-29T02:54:49;2.13;;;1.38;;
32297;SDS011;18782;48.984;8.548;2023-12-29T02:57:16;3.45;;;1.60;;
32297;SDS011;18782;48.984;8.548;2023-12-29T02:59:45;2.53;;;1.40;;
32297;SDS011;18782;48.984;8.548;2023-12-29T03:02:13;2.50;;;1.23;;
32297;SDS011;18782;48.984;8.548;2023-12-29T03:04:41;2.75;;;1.27;;
32297;SDS011;18782;48.984;8.548;2023-12-29T03:07:09;1.85;;;1.20;;
32297;SDS011;18782;48.984;8.548;2023-12-29T03:09:37;2.13;;;1.58;;
32297;SDS011;18782;48.984;8.548;2023-12-29T03:12:05;2.10;;;1.45;;
32297;SDS011;18782;48.984;8.548;2023-12-29T03:14:33;2.83;;;1.40;;
32297;SDS011;18782;48.984;8.548;2023-12-29T03:17:02;2.88;;;1.00;;
32297;SDS011;18782;48.984;8.548;2023-12-29T03:19:30;2.28;;;1.20;;
32297;SDS011;18782;48.984;8.548;2023-12-29T03:21:59;2.72;;;0.82;;
32297;SDS011;18782;48.984;8.548;2023-12-29T03:24:27;1.15;;;0.90;;
32297;SDS011;18782;48.984;8.548;2023-12-29T03:26:55;1.27;;;0.75;;
32297;SDS011;18782;48.984;8.548;2023-12-29T03:29:23;1.63;;;0.88;;
32297;SDS011;18782;48.984;8.548;2023-12-29T03:31:52;1.00;;;0.70;;
32297;SDS011;18782;48.984;8.548;2023-12-29T03:34:21;1.35;;;0.75;;
32297;SDS011;18782;48.984;8.548;2023-12-29T03:36:49;1.33;;;0.65;;
32297;SDS011;18782;48.984;8.548;2023-12-29T03:39:17;2.60;;;1.08;;
32297;SDS011;18782;48.984;8.548;2023-12-29T03:41:45;0.98;;;0.68;;
32297;SDS011;18782;48.984;8.548;2023-12-29T03:44:12;1.52;;;0.80;;
32297;SDS011;18782;48.984;8.548;2023-12-29T03:46:40;2.20;;;0.95;;
32297;SDS011;18782;48.984;8.548;2023-12-29T03:49:08;1.70;;;0.68;;
32297;SDS011;18782;48.984;8.548;2023-12-29T03:51:37;2.50;;;1.00;;
32297;SDS011;18782;48.984;8.548;2023-12-29T03:54:05;1.23;;;0.80;;
32297;SDS011;18782;48.984;8.548;2023-12-29T03:56:33;2.45;;;0.90;;
32297;SDS011;18782;48.984;8.548;2023-12-29T03:59:01;2.03;;;0.77;;
32297;SDS011;18782;48.984;8.548;2023-12-29T04:01:28;2.78;;;0.77;;
32297;SDS011;18782;48.984;8.548;2023-12-29T04:03:56;1.75;;;0.90;;
32297;SDS011;18782;48.984;8.548;2023-12-29T04:06:24;1.35;;;0.70;;
32297;SDS011;18782;48.984;8.548;2023-12-29T04:08:53;1.17;;;0.80;;
32297;SDS011;18782;48.984;8.548;2023-12-29T04:11:21;1.50;;;0.80;;
32297;SDS011;18782;48.984;8.548;2023-12-29T04:13:48;1.45;;;0.90;;
32297;SDS011;18782;48.984;8.548;2023-12-29T04:16:16;2.75;;;1.15;;
32297;SDS011;18782;48.984;8.548;2023-12-29T04:18:44;2.20;;;0.75;;
32297;SDS011;18782;48.984;8.548;2023-12-29T04:21:13;1.05;;;0.70;;
32297;SDS011;18782;48.984;8.548;2023-12-29T04:23:41;1.80;;;0.90;;
32297;SDS011;18782;48.984;8.548;2023-12-29T04:26:10;1.20;;;0.60;;
32297;SDS011;18782;48.984;8.548;2023-12-29T04:28:38;1.33;;;0.80;;
32297;SDS011;18782;48.984;8.548;2023-12-29T04:31:05;1.80;;;0.73;;
32297;SDS011;18782;48.984;8.548;2023-12-29T04:33:33;1.48;;;0.70;;
32297;SDS011;18782;48.984;8.548;2023-12-29T04:36:01;1.35;;;1.00;;
32297;SDS011;18782;48.984;8.548;2023-12-29T04:38:30;1.00;;;0.60;;
32297;SDS011;18782;48.984;8.548;2023-12-29T04:40:57;1.23;;;0.80;;
32297;SDS011;18782;48.984;8.548;2023-12-29T04:43:27;0.95;;;0.73;;
32297;SDS011;18782;48.984;8.548;2023-12-29T04:45:54;1.77;;;0.60;;
32297;SDS011;18782;48.984;8.548;2023-12-29T04:48:23;1.60;;;1.00;;
32297;SDS011;18782;48.984;8.548;2023-12-29T04:50:50;2.53;;;0.77;;
32297;SDS011;18782;48.984;8.548;2023-12-29T04:53:18;1.95;;;0.80;;
32297;SDS011;18782;48.984;8.548;2023-12-29T04:55:46;1.30;;;0.73;;
32297;SDS011;18782;48.984;8.548;2023-12-29T04:58:13;1.67;;;1.00;;
32297;SDS011;18782;48.984;8.548;2023-12-29T05:00:42;1.08;;;0.90;;
32297;SDS011;18782;48.984;8.548;2023-12-29T05:03:11;1.58;;;0.90;;
32297;SDS011;18782;48.984;8.548;2023-12-29T05:05:38;1.50;;;0.90;;
32297;SDS011;18782;48.984;8.548;2023-12-29T05:08:06;1.10;;;0.63;;
32297;SDS011;18782;48.984;8.548;2023-12-29T05:10:34;1.55;;;0.80;;
32297;SDS011;18782;48.984;8.548;2023-12-29T05:13:03;1.35;;;0.90;;
32297;SDS011;18782;48.984;8.548;2023-12-29T05:15:31;1.45;;;0.98;;
32297;SDS011;18782;48.984;8.548;2023-12-29T05:18:00;1.75;;;1.30;;
32297;SDS011;18782;48.984;8.548;2023-12-29T05:20:28;1.42;;;1.05;;
32297;SDS011;18782;48.984;8.548;2023-12-29T05:22:55;1.67;;;1.23;;
32297;SDS011;18782;48.984;8.548;2023-12-29T05:25:23;1.88;;;1.00;;
32297;SDS011;18782;48.984;8.548;2023-12-29T05:27:51;3.60;;;1.50;;
32297;SDS011;18782;48.984;8.548;2023-12-29T05:30:18;2.83;;;1.40;;
32297;SDS011;18782;48.984;8.548;2023-12-29T05:32:46;2.20;;;1.30;;
32297;SDS011;18782;48.984;8.548;2023-12-29T05:35:15;2.15;;;1.48;;
32297;SDS011;18782;48.984;8.548;2023-12-29T05:37:43;1.60;;;1.35;;
32297;SDS011;18782;48.984;8.548;2023-12-29T05:40:11;2.35;;;1.75;;
32297;SDS011;18782;48.984;8.548;2023-12-29T05:42:39;3.60;;;1.40;;
32297;SDS011;18782;48.984;8.548;2023-12-29T05:45:07;2.65;;;1.55;;
32297;SDS011;18782;48.984;8.548;2023-12-29T05:47:35;3.05;;;1.50;;
32297;SDS011;18782;48.984;8.548;2023-12-29T05:50:03;2.50;;;1.40;;
32297;SDS011;18782;48.984;8.548;2023-12-29T05:52:33;1.73;;;1.30;;
32297;SDS011;18782;48.984;8.548;2023-12-29T05:55:01;3.05;;;1.73;;
32297;SDS011;18782;48.984;8.548;2023-12-29T05:57:29;3.67;;;1.80;;
32297;SDS011;18782;48.984;8.548;2023-12-29T05:59:57;4.10;;;1.80;;
32297;SDS011;18782;48.984;8.548;2023-12-29T06:02:24;1.70;;;1.30;;
32297;SDS011;18782;48.984;8.548;2023-12-29T06:04:52;4.25;;;1.65;;
32297;SDS011;18782;48.984;8.548;2023-12-29T06:07:20;1.40;;;1.30;;
32297;SDS011;18782;48.984;8.548;2023-12-29T06:09:49;3.15;;;1.40;;
32297;SDS011;18782;48.984;8.548;2023-12-29T06:12:17;1.75;;;1.20;;
32297;SDS011;18782;48.984;8.548;2023-12-29T06:14:44;2.33;;;1.30;;
32297;SDS011;18782;48.984;8.548;2023-12-29T06:17:12;3.17;;;1.50;;
32297;SDS011;18782;48.984;8.548;2023-12-29T06:19:41;1.83;;;1.35;;
32297;SDS011;18782;48.984;8.548;2023-12-29T06:22:09;6.20;;;3.45;;
32297;SDS011;18782;48.984;8.548;2023-12-29T06:24:38;2.20;;;1.35;;
32297;SDS011;18782;48.984;8.548;2023-12-29T06:27:07;2.67;;;1.20;;
32297;SDS011;18782;48.984;8.548;2023-12-29T06:29:35;2.20;;;1.58;;
32297;SDS011;18782;48.984;8.548;2023-12-29T06:32:03;2.15;;;1.17;;
32297;SDS011;18782;48.984;8.548;2023-12-29T06:34:31;1.58;;;1.00;;
32297;SDS011;18782;48.984;8.548;2023-12-29T06:36:59;1.52;;;1.17;;
32297;SDS011;18782;48.984;8.548;2023-12-29T06:39:27;2.88;;;1.40;;
32297;SDS011;18782;48.984;8.548;2023-12-29T06:41:55;2.42;;;1.30;;
32297;SDS011;18782;48.984;8.548;2023-12-29T06:44:24;2.35;;;1.33;;
32297;SDS011;18782;48.984;8.548;2023-12-29T06:46:52;1.58;;;1.00;;
32297;SDS011;18782;48.984;8.548;2023-12-29T06:49:19;3.88;;;2.70;;
32297;SDS011;18782;48.984;8.548;2023-12-29T06:51:47;2.95;;;1.83;;
32297;SDS011;18782;48.984;8.548;2023-12-29T06:54:15;2.20;;;1.25;;
32297;SDS011;18782;48.984;8.548;2023-12-29T06:56:43;2.40;;;1.08;;
32297;SDS011;18782;48.984;8.548;2023-12-29T06:59:11;2.38;;;1.40;;
32297;SDS011;18782;48.984;8.548;2023-12-29T07:01:40;3.00;;;1.17;;
32297;SDS011;18782;48.984;8.548;2023-12-29T07:04:08;1.77;;;1.20;;
32297;SDS011;18782;48.984;8.548;2023-12-29T07:06:37;1.73;;;1.00;;
32297;SDS011;18782;48.984;8.548;2023-12-29T07:09:04;1.90;;;1.10;;
32297;SDS011;18782;48.984;8.548;2023-12-29T07:11:34;1.80;;;1.30;;
32297;SDS011;18782;48.984;8.548;2023-12-29T07:14:01;2.13;;;0.95;;
32297;SDS011;18782;48.984;8.548;2023-12-29T07:16:29;4.07;;;1.30;;
32297;SDS011;18782;48.984;8.548;2023-12-29T07:18:59;2.22;;;1.13;;
32297;SDS011;18782;48.984;8.548;2023-12-29T07:21:27;3.17;;;1.30;;
32297;SDS011;18782;48.984;8.548;2023-12-29T07:23:54;1.42;;;1.10;;
32297;SDS011;18782;48.984;8.548;2023-12-29T07:26:22;3.65;;;1.23;;
32297;SDS011;18782;48.984;8.548;2023-12-29T07:28:50;4.13;;;2.58;;
32297;SDS011;18782;48.984;8.548;2023-12-29T07:31:20;1.80;;;1.30;;
32297;SDS011;18782;48.984;8.548;2023-12-29T07:33:48;2.85;;;1.40;;
32297;SDS011;18782;48.984;8.548;2023-12-29T07:36:17;3.13;;;1.17;;
32297;SDS011;18782;48.984;8.548;2023-12-29T07:38:45;1.67;;;1.00;;
32297;SDS011;18782;48.984;8.548;2023-12-29T07:41:13;1.90;;;0.90;;
32297;SDS011;18782;48.984;8.548;2023-12-29T07:43:41;1.35;;;0.90;;
32297;SDS011;18782;48.984;8.548;2023-12-29T07:46:09;2.40;;;1.50;;
32297;SDS011;18782;48.984;8.548;2023-12-29T07:48:36;1.63;;;1.10;;
32297;SDS011;18782;48.984;8.548;2023-12-29T07:51:05;3.60;;;1.65;;
32297;SDS011;18782;48.984;8.548;2023-12-29T07:53:35;1.17;;;0.80;;
32297;SDS011;18782;48.984;8.548;2023-12-29T07:56:03;2.15;;;1.13;;
32297;SDS011;18782;48.984;8.548;2023-12-29T07:58:31;3.45;;;2.65;;
32297;SDS011;18782;48.984;8.548;2023-12-29T08:00:59;4.00;;;1.92;;
32297;SDS011;18782;48.984;8.548;2023-12-29T08:03:27;1.80;;;1.05;;
32297;SDS011;18782;48.984;8.548;2023-12-29T08:05:54;2.08;;;1.08;;
32297;SDS011;18782;48.984;8.548;2023-12-29T08:08:22;2.60;;;1.38;;
32297;SDS011;18782;48.984;8.548;2023-12-29T08:10:51;1.77;;;1.33;;
32297;SDS011;18782;48.984;8.548;2023-12-29T08:13:19;1.50;;;0.93;;
32297;SDS011;18782;48.984;8.548;2023-12-29T08:15:47;4.70;;;1.50;;
32297;SDS011;18782;48.984;8.548;2023-12-29T08:18:15;3.55;;;1.48;;
32297;SDS011;18782;48.984;8.548;2023-12-29T08:20:42;5.05;;;3.20;;
32297;SDS011;18782;48.984;8.548;2023-12-29T08:23:10;2.75;;;1.30;;
32297;SDS011;18782;48.984;8.548;2023-12-29T08:25:37;1.95;;;1.20;;
32297;SDS011;18782;48.984;8.548;2023-12-29T08:28:06;5.80;;;2.55;;
32297;SDS011;18782;48.984;8.548;2023-12-29T08:30:34;11.88;;;5.35;;
32297;SDS011;18782;48.984;8.548;2023-12-29T08:33:03;1.85;;;1.27;;
32297;SDS011;18782;48.984;8.548;2023-12-29T08:35:31;5.78;;;2.60;;
32297;SDS011;18782;48.984;8.548;2023-12-29T08:37:59;1.45;;;1.20;;
32297;SDS011;18782;48.984;8.548;2023-12-29T08:40:27;6.13;;;1.70;;
32297;SDS011;18782;48.984;8.548;2023-12-29T08:42:55;4.38;;;2.70;;
32297;SDS011;18782;48.984;8.548;2023-12-29T08:45:24;1.73;;;1.40;;
32297;SDS011;18782;48.984;8.548;2023-12-29T08:47:52;2.20;;;1.08;;
32297;SDS011;18782;48.984;8.548;2023-12-29T08:50:20;2.45;;;1.40;;
32297;SDS011;18782;48.984;8.548;2023-12-29T08:52:48;2.60;;;1.33;;
32297;SDS011;18782;48.984;8.548;2023-12-29T08:55:15;3.67;;;1.45;;
32297;SDS011;18782;48.984;8.548;2023-12-29T08:57:43;2.10;;;1.20;;
32297;SDS011;18782;48.984;8.548;2023-12-29T09:00:11;2.30;;;1.40;;
32297;SDS011;18782;48.984;8.548;2023-12-29T09:02:40;2.17;;;1.10;;
32297;SDS011;18782;48.984;8.548;2023-12-29T09:05:08;1.70;;;1.17;;
32297;SDS011;18782;48.984;8.548;2023-12-29T09:07:36;2.20;;;1.20;;
32297;SDS011;18782;48.984;8.548;2023-12-29T09:10:04;2.50;;;1.30;;
32297;SDS011;18782;48.984;8.548;2023-12-29T09:12:34;2.80;;;1.20;;
32297;SDS011;18782;48.984;8.548;2023-12-29T09:15:02;2.28;;;1.20;;
32297;SDS011;18782;48.984;8.548;2023-12-29T09:17:31;2.53;;;1.20;;
32297;SDS011;18782;48.984;8.548;2023-12-29T09:20:00;2.60;;;1.10;;
32297;SDS011;18782;48.984;8.548;2023-12-29T09:22:36;1.52;;;1.00;;
32297;SDS011;18782;48.984;8.548;2023-12-29T09:25:04;1.80;;;1.15;;
32297;SDS011;18782;48.984;8.548;2023-12-29T09:27:32;2.05;;;1.10;;
32297;SDS011;18782;48.984;8.548;2023-12-29T09:30:00;1.20;;;0.90;;
32297;SDS011;18782;48.984;8.548;2023-12-29T09:32:27;1.40;;;0.82;;
32297;SDS011;18782;48.984;8.548;2023-12-29T09:34:55;1.25;;;0.90;;
32297;SDS011;18782;48.984;8.548;2023-12-29T09:37:24;1.63;;;0.85;;
32297;SDS011;18782;48.984;8.548;2023-12-29T09:39:51;2.28;;;1.00;;
32297;SDS011;18782;48.984;8.548;2023-12-29T09:42:20;2.17;;;1.05;;
32297;SDS011;18782;48.984;8.548;2023-12-29T09:44:49;1.92;;;0.98;;
32297;SDS011;18782;48.984;8.548;2023-12-29T09:47:19;1.70;;;1.00;;
32297;SDS011;18782;48.984;8.548;2023-12-29T09:49:51;1.23;;;0.70;;
32297;SDS011;18782;48.984;8.548;2023-12-29T09:52:20;1.88;;;0.90;;
32297;SDS011;18782;48.984;8.548;2023-12-29T09:54:51;0.90;;;0.70;;
32297;SDS011;18782;48.984;8.548;2023-12-29T09:57:19;1.85;;;0.60;;
32297;SDS011;18782;48.984;8.548;2023-12-29T09:59:48;1.38;;;0.70;;
32297;SDS011;18782;48.984;8.548;2023-12-29T10:02:18;0.90;;;0.50;;
32297;SDS011;18782;48.984;8.548;2023-12-29T10:04:48;1.40;;;0.50;;
32297;SDS011;18782;48.984;8.548;2023-12-29T10:07:18;1.25;;;0.60;;
32297;SDS011;18782;48.984;8.548;2023-12-29T10:09:54;0.70;;;0.47;;
32297;SDS011;18782;48.984;8.548;2023-12-29T10:12:25;3.00;;;1.27;;
32297;SDS011;18782;48.984;8.548;2023-12-29T10:14:56;0.70;;;0.50;;
32297;SDS011;18782;48.984;8.548;2023-12-29T10:17:36;2.78;;;1.30;;
32297;SDS011;18782;48.984;8.548;2023-12-29T10:20:14;1.70;;;0.70;;
32297;SDS011;18782;48.984;8.548;2023-12-29T10:22:51;3.38;;;2.10;;
32297;SDS011;18782;48.984;8.548;2023-12-29T10:25:28;1.90;;;0.93;;
32297;SDS011;18782;48.984;8.548;2023-12-29T10:27:56;1.88;;;0.70;;
32297;SDS011;18782;48.984;8.548;2023-12-29T10:30:24;1.98;;;0.70;;
32297;SDS011;18782;48.984;8.548;2023-12-29T10:33:00;1.17;;;0.60;;
32297;SDS011;18782;48.984;8.548;2023-12-29T10:35:30;2.88;;;0.75;;
32297;SDS011;18782;48.984;8.548;2023-12-29T10:38:10;1.73;;;0.47;;
32297;SDS011;18782;48.984;8.548;2023-12-29T10:40:41;1.33;;;0.70;;
32297;SDS011;18782;48.984;8.548;2023-12-29T10:43:10;0.90;;;0.60;;
32297;SDS011;18782;48.984;8.548;2023-12-29T10:45:37;0.98;;;0.40;;
32297;SDS011;18782;48.984;8.548;2023-12-29T10:48:05;1.00;;;0.55;;
32297;SDS011;18782;48.984;8.548;2023-12-29T10:50:42;1.42;;;0.90;;
32297;SDS011;18782;48.984;8.548;2023-12-29T10:53:10;2.25;;;0.50;;
32297;SDS011;18782;48.984;8.548;2023-12-29T10:55:38;1.40;;;0.60;;
32297;SDS011;18782;48.984;8.548;2023-12-29T10:58:07;0.50;;;0.30;;
32297;SDS011;18782;48.984;8.548;2023-12-29T11:00:35;0.80;;;0.40;;
32297;SDS011;18782;48.984;8.548;2023-12-29T11:03:03;1.80;;;0.40;;
32297;SDS011;18782;48.984;8.548;2023-12-29T11:05:33;0.93;;;0.47;;
32297;SDS011;18782;48.984;8.548;2023-12-29T11:08:01;1.00;;;0.60;;
32297;SDS011;18782;48.984;8.548;2023-12-29T11:10:29;1.05;;;0.50;;
32297;SDS011;18782;48.984;8.548;2023-12-29T11:12:58;1.25;;;0.70;;
32297;SDS011;18782;48.984;8.548;2023-12-29T11:15:27;0.90;;;0.30;;
32297;SDS011;18782;48.984;8.548;2023-12-29T11:17:55;0.77;;;0.43;;
32297;SDS011;18782;48.984;8.548;2023-12-29T11:20:24;4.50;;;2.03;;
32297;SDS011;18782;48.984;8.548;2023-12-29T11:22:52;1.40;;;0.70;;
32297;SDS011;18782;48.984;8.548;2023-12-29T11:25:21;0.80;;;0.40;;
32297;SDS011;18782;48.984;8.548;2023-12-29T11:27:49;0.98;;;0.50;;
32297;SDS011;18782;48.984;8.548;2023-12-29T11:30:19;1.63;;;0.75;;
32297;SDS011;18782;48.984;8.548;2023-12-29T11:32:49;4.53;;;2.88;;
32297;SDS011;18782;48.984;8.548;2023-12-29T11:35:21;3.10;;;1.90;;
32297;SDS011;18782;48.984;8.548;2023-12-29T11:38:02;1.42;;;0.75;;
32297;SDS011;18782;48.984;8.548;2023-12-29T11:40:50;1.45;;;0.60;;
32297;SDS011;18782;48.984;8.548;2023-12-29T11:43:26;1.45;;;0.40;;
32297;SDS011;18782;48.984;8.548;2023-12-29T11:45:54;3.80;;;1.80;;
32297;SDS011;18782;48.984;8.548;2023-12-29T11:51:28;1.52;;;0.60;;
32297;SDS011;18782;48.984;8.548;2023-12-29T11:53:57;0.45;;;0.30;;
32297;SDS011;18782;48.984;8.548;2023-12-29T11:56:30;0.70;;;0.43;;
32297;SDS011;18782;48.984;8.548;2023-12-29T11:59:14;1.10;;;0.47;;
32297;SDS011;18782;48.984;8.548;2023-12-29T12:01:42;1.40;;;0.60;;
32297;SDS011;18782;48.984;8.548;2023-12-29T12:07:08;1.33;;;0.50;;
32297;SDS011;18782;48.984;8.548;2023-12-29T12:09:40;1.65;;;0.85;;
32297;SDS011;18782;48.984;8.548;2023-12-29T12:12:07;1.08;;;0.70;;
32297;SDS011;18782;48.984;8.548;2023-12-29T12:14:50;1.23;;;0.77;;
32297;SDS011;18782;48.984;8.548;2023-12-29T12:17:26;2.25;;;1.63;;
32297;SDS011;18782;48.984;8.548;2023-12-29T12:20:00;1.58;;;0.82;;
32297;SDS011;18782;48.984;8.548;2023-12-29T12:22:30;1.60;;;0.85;;
32297;SDS011;18782;48.984;8.548;2023-12-29T12:25:04;1.58;;;0.75;;
32297;SDS011;18782;48.984;8.548;2023-12-29T12:27:32;1.10;;;0.75;;
32297;SDS011;18782;48.984;8.548;2023-12-29T12:30:00;1.83;;;0.80;;
32297;SDS011;18782;48.984;8.548;2023-12-29T12:32:29;1.38;;;0.68;;
32297;SDS011;18782;48.984;8.548;2023-12-29T12:34:57;1.33;;;0.80;;
32297;SDS011;18782;48.984;8.548;2023-12-29T12:37:27;1.83;;;0.77;;
32297;SDS011;18782;48.984;8.548;2023-12-29T12:39:56;1.58;;;0.77;;
32297;SDS011;18782;48.984;8.548;2023-12-29T12:42:24;1.50;;;0.77;;
32297;SDS011;18782;48.984;8.548;2023-12-29T12:44:54;2.13;;;0.90;;
32297;SDS011;18782;48.984;8.548;2023-12-29T12:47:25;2.92;;;0.70;;
32297;SDS011;18782;48.984;8.548;2023-12-29T12:49:55;1.25;;;0.68;;
32297;SDS011;18782;48.984;8.548;2023-12-29T12:52:23;2.30;;;0.90;;
32297;SDS011;18782;48.984;8.548;2023-12-29T12:54:52;2.17;;;1.17;;
32297;SDS011;18782;48.984;8.548;2023-12-29T12:57:22;1.60;;;0.80;;
32297;SDS011;18782;48.984;8.548;2023-12-29T12:59:49;2.78;;;1.27;;
32297;SDS011;18782;48.984;8.548;2023-12-29T13:02:20;1.80;;;0.90;;
32297;SDS011;18782;48.984;8.548;2023-12-29T13:04:48;2.42;;;0.90;;
32297;SDS011;18782;48.984;8.548;2023-12-29T13:07:17;1.95;;;0.82;;
32297;SDS011;18782;48.984;8.548;2023-12-29T13:09:45;1.55;;;0.82;;
32297;SDS011;18782;48.984;8.548;2023-12-29T13:12:17;1.45;;;0.95;;
32297;SDS011;18782;48.984;8.548;2023-12-29T13:14:46;1.52;;;0.80;;
32297;SDS011;18782;48.984;8.548;2023-12-29T13:17:14;1.23;;;0.75;;
32297;SDS011;18782;48.984;8.548;2023-12-29T13:19:42;1.98;;;0.93;;
32297;SDS011;18782;48.984;8.548;2023-12-29T13:22:11;1.27;;;0.98;;
32297;SDS011;18782;48.984;8.548;2023-12-29T13:24:44;1.60;;;0.90;;
32297;SDS011;18782;48.984;8.548;2023-12-29T13:27:13;1.48;;;0.93;;
32297;SDS011;18782;48.984;8.548;2023-12-29T13:29:43;3.08;;;1.92;;
32297;SDS011;18782;48.984;8.548;2023-12-29T13:32:12;1.98;;;1.00;;
32297;SDS011;18782;48.984;8.548;2023-12-29T13:34:47;1.90;;;1.08;;
32297;SDS011;18782;48.984;8.548;2023-12-29T13:37:21;1.33;;;0.60;;
32297;SDS011;18782;48.984;8.548;2023-12-29T13:39:55;4.05;;;0.90;;
32297;SDS011;18782;48.984;8.548;2023-12-29T13:42:27;1.67;;;0.80;;
32297;SDS011;18782;48.984;8.548;2023-12-29T13:45:00;1.15;;;0.70;;
32297;SDS011;18782;48.984;8.548;2023-12-29T13:47:31;2.25;;;0.93;;
32297;SDS011;18782;48.984;8.548;2023-12-29T13:50:00;1.52;;;0.70;;
32297;SDS011;18782;48.984;8.548;2023-12-29T13:52:28;1.00;;;0.50;;
32297;SDS011;18782;48.984;8.548;2023-12-29T13:54:56;1.17;;;0.60;;
32297;SDS011;18782;48.984;8.548;2023-12-29T13:57:29;0.95;;;0.50;;
32297;SDS011;18782;48.984;8.548;2023-12-29T13:59:57;0.93;;;0.52;;
32297;SDS011;18782;48.984;8.548;2023-12-29T14:02:31;3.63;;;0.80;;
32297;SDS011;18782;48.984;8.548;2023-12-29T14:05:11;1.42;;;0.60;;
32297;SDS011;18782;48.984;8.548;2023-12-29T14:07:44;2.08;;;0.70;;
32297;SDS011;18782;48.984;8.548;2023-12-29T14:10:14;1.48;;;0.43;;
32297;SDS011;18782;48.984;8.548;2023-12-29T14:12:42;0.70;;;0.47;;
32297;SDS011;18782;48.984;8.548;2023-12-29T14:15:11;1.23;;;0.55;;
32297;SDS011;18782;48.984;8.548;2023-12-29T14:17:40;1.17;;;0.65;;
32297;SDS011;18782;48.984;8.548;2023-12-29T14:20:08;1.48;;;0.70;;
32297;SDS011;18782;48.984;8.548;2023-12-29T14:22:36;1.10;;;0.60;;
32297;SDS011;18782;48.984;8.548;2023-12-29T14:25:04;1.52;;;0.70;;
32297;SDS011;18782;48.984;8.548;2023-12-29T14:27:34;0.55;;;0.38;;
32297;SDS011;18782;48.984;8.548;2023-12-29T14:30:02;0.75;;;0.47;;
32297;SDS011;18782;48.984;8.548;2023-12-29T14:32:30;1.80;;;0.60;;
32297;SDS011;18782;48.984;8.548;2023-12-29T14:34:59;1.98;;;0.60;;
32297;SDS011;18782;48.984;8.548;2023-12-29T14:37:29;2.35;;;0.73;;
32297;SDS011;18782;48.984;8.548;2023-12-29T14:39:57;1.88;;;0.60;;
32297;SDS011;18782;48.984;8.548;2023-12-29T14:42:24;1.17;;;0.63;;
32297;SDS011;18782;48.984;8.548;2023-12-29T14:44:52;1.25;;;0.63;;
32297;SDS011;18782;48.984;8.548;2023-12-29T14:47:20;2.28;;;0.80;;
32297;SDS011;18782;48.984;8.548;2023-12-29T14:49:47;1.88;;;0.70;;
32297;SDS011;18782;48.984;8.548;2023-12-29T14:52:17;0.98;;;0.60;;
32297;SDS011;18782;48.984;8.548;2023-12-29T14:54:46;1.83;;;0.60;;
32297;SDS011;18782;48.984;8.548;2023-12-29T14:57:14;0.95;;;0.60;;
32297;SDS011;18782;48.984;8.548;2023-12-29T14:59:47;0.90;;;0.50;;
32297;SDS011;18782;48.984;8.548;2023-12-29T15:02:14;1.85;;;1.08;;
32297;SDS011;18782;48.984;8.548;2023-12-29T15:04:42;2.22;;;1.00;;